sensor_id;sensor_type;location;lat;lon;timestamp;pressure;altitude;pressure_sealevel;temperature;humidity
50430;BME280;36359;41.556;-8.418;2023-08-06T00:00:21;100312.88;;;25.28;64.90
50430;BME280;36359;41.556;-8.418;2023-08-06T00:02:46;100305.72;;;25.32;64.37
50430;BME280;36359;41.556;-8.418;2023-08-06T00:05:12;100309.47;;;25.26;64.80
50430;BME280;36359;41.556;-8.418;2023-08-06T00:07:38;100306.81;;;25.31;63.36
50430;BME280;36359;41.556;-8.418;2023-08-06T00:10:04;100302.25;;;25.25;65.03
50430;BME280;36359;41.556;-8.418;2023-08-06T00:12:29;100307.00;;;25.41;63.00
50430;BME280;36359;41.556;-8.418;2023-08-06T00:14:55;100297.75;;;25.35;64.65
50430;BME280;36359;41.556;-8.418;2023-08-06T00:17:21;100294.44;;;25.10;65.78
50430;BME280;36359;41.556;-8.418;2023-08-06T00:19:47;100292.06;;;24.90;66.34
50430;BME280;36359;41.556;-8.418;2023-08-06T00:22:12;100293.75;;;24.91;65.72
50430;BME280;36359;41.556;-8.418;2023-08-06T00:24:38;100286.53;;;24.90;65.87
50430;BME280;36359;41.556;-8.418;2023-08-06T00:27:04;100284.72;;;24.84;66.00
50430;BME280;36359;41.556;-8.418;2023-08-06T00:29:29;100290.88;;;24.86;65.89
50430;BME280;36359;41.556;-8.418;2023-08-06T00:31:55;100286.63;;;24.95;65.33
50430;BME280;36359;41.556;-8.418;2023-08-06T00:34:21;100281.91;;;24.96;65.49
50430;BME280;36359;41.556;-8.418;2023-08-06T00:36:47;100283.31;;;25.10;64.75
50430;BME280;36359;41.556;-8.418;2023-08-06T00:39:13;100283.91;;;25.24;63.19
50430;BME280;36359;41.556;-8.418;2023-08-06T00:41:39;100287.56;;;25.41;62.59
50430;BME280;36359;41.556;-8.418;2023-08-06T00:44:13;100286.16;;;25.55;61.77
50430;BME280;36359;41.556;-8.418;2023-08-06T00:46:39;100286.25;;;25.60;62.35
50430;BME280;36359;41.556;-8.418;2023-08-06T00:49:05;100286.16;;;25.55;61.74
50430;BME280;36359;41.556;-8.418;2023-08-06T00:51:31;100288.50;;;25.47;63.36
50430;BME280;36359;41.556;-8.418;2023-08-06T00:53:57;100276.56;;;25.18;64.35
50430;BME280;36359;41.556;-8.418;2023-08-06T00:56:24;100279.38;;;24.94;65.64
50430;BME280;36359;41.556;-8.418;2023-08-06T00:58:50;100277.69;;;24.93;65.67
50430;BME280;36359;41.556;-8.418;2023-08-06T01:01:15;100274.97;;;24.81;66.05
50430;BME280;36359;41.556;-8.418;2023-08-06T01:03:41;100281.47;;;24.87;65.93
50430;BME280;36359;41.556;-8.418;2023-08-06T01:06:07;100268.72;;;24.74;66.21
50430;BME280;36359;41.556;-8.418;2023-08-06T01:08:50;100267.28;;;24.60;66.98
50430;BME280;36359;41.556;-8.418;2023-08-06T01:11:38;100268.03;;;24.43;67.47
50430;BME280;36359;41.556;-8.418;2023-08-06T01:14:18;100264.41;;;24.55;66.00
50430;BME280;36359;41.556;-8.418;2023-08-06T01:16:49;100263.06;;;24.69;66.31
50430;BME280;36359;41.556;-8.418;2023-08-06T01:19:17;100265.50;;;24.94;63.45
50430;BME280;36359;41.556;-8.418;2023-08-06T01:21:43;100270.66;;;25.14;64.06
50430;BME280;36359;41.556;-8.418;2023-08-06T01:24:09;100265.16;;;25.31;62.53
50430;BME280;36359;41.556;-8.418;2023-08-06T01:26:53;100258.09;;;25.40;61.74
50430;BME280;36359;41.556;-8.418;2023-08-06T01:29:38;100264.06;;;25.32;62.85
50430;BME280;36359;41.556;-8.418;2023-08-06T01:32:05;100267.84;;;25.26;62.99
50430;BME280;36359;41.556;-8.418;2023-08-06T01:34:33;100256.91;;;25.07;64.00
50430;BME280;36359;41.556;-8.418;2023-08-06T01:37:00;100263.50;;;24.78;66.55
50430;BME280;36359;41.556;-8.418;2023-08-06T01:39:26;100251.00;;;24.63;66.85
50430;BME280;36359;41.556;-8.418;2023-08-06T01:41:52;100259.09;;;24.41;67.09
50430;BME280;36359;41.556;-8.418;2023-08-06T01:44:18;100254.63;;;24.29;68.09
50430;BME280;36359;41.556;-8.418;2023-08-06T01:46:43;100252.34;;;24.14;68.65
50430;BME280;36359;41.556;-8.418;2023-08-06T01:49:09;100254.75;;;24.22;68.06
50430;BME280;36359;41.556;-8.418;2023-08-06T01:51:35;100253.66;;;24.11;67.95
50430;BME280;36359;41.556;-8.418;2023-08-06T01:54:00;100255.84;;;24.09;68.22
50430;BME280;36359;41.556;-8.418;2023-08-06T01:56:26;100246.56;;;24.03;68.16
50430;BME280;36359;41.556;-8.418;2023-08-06T01:58:52;100251.50;;;24.13;67.48
50430;BME280;36359;41.556;-8.418;2023-08-06T02:01:17;100242.09;;;24.50;65.16
50430;BME280;36359;41.556;-8.418;2023-08-06T02:03:44;100244.97;;;24.66;65.50
50430;BME280;36359;41.556;-8.418;2023-08-06T02:06:09;100243.03;;;24.67;64.93
50430;BME280;36359;41.556;-8.418;2023-08-06T02:08:35;100245.25;;;24.53;66.47
50430;BME280;36359;41.556;-8.418;2023-08-06T02:11:01;100238.34;;;24.44;66.36
50430;BME280;36359;41.556;-8.418;2023-08-06T02:13:30;100253.78;;;24.52;64.99
50430;BME280;36359;41.556;-8.418;2023-08-06T02:15:55;100242.81;;;24.33;67.28
50430;BME280;36359;41.556;-8.418;2023-08-06T02:18:21;100228.38;;;23.96;68.35
50430;BME280;36359;41.556;-8.418;2023-08-06T02:20:57;100237.97;;;23.82;69.23
50430;BME280;36359;41.556;-8.418;2023-08-06T02:23:24;100236.19;;;23.87;68.61
50430;BME280;36359;41.556;-8.418;2023-08-06T02:26:10;100235.56;;;23.73;69.11
50430;BME280;36359;41.556;-8.418;2023-08-06T02:28:35;100235.28;;;23.63;70.15
50430;BME280;36359;41.556;-8.418;2023-08-06T02:31:01;100231.19;;;23.54;70.44
50430;BME280;36359;41.556;-8.418;2023-08-06T02:33:27;100232.84;;;23.55;70.57
50430;BME280;36359;41.556;-8.418;2023-08-06T02:36:02;100225.28;;;23.50;70.82
50430;BME280;36359;41.556;-8.418;2023-08-06T02:38:29;100217.66;;;23.46;70.97
50430;BME280;36359;41.556;-8.418;2023-08-06T02:40:56;100217.50;;;23.29;71.89
50430;BME280;36359;41.556;-8.418;2023-08-06T02:43:22;100224.81;;;23.23;71.96
50430;BME280;36359;41.556;-8.418;2023-08-06T02:45:48;100218.03;;;23.49;70.90
50430;BME280;36359;41.556;-8.418;2023-08-06T02:48:14;100219.72;;;23.39;71.32
50430;BME280;36359;41.556;-8.418;2023-08-06T02:50:41;100221.63;;;23.50;71.13
50430;BME280;36359;41.556;-8.418;2023-08-06T02:53:08;100210.94;;;23.42;70.95
50430;BME280;36359;41.556;-8.418;2023-08-06T02:55:34;100216.94;;;23.39;70.98
50430;BME280;36359;41.556;-8.418;2023-08-06T02:58:04;100215.72;;;23.34;71.28
50430;BME280;36359;41.556;-8.418;2023-08-06T03:00:33;100210.66;;;23.31;71.47
50430;BME280;36359;41.556;-8.418;2023-08-06T03:03:01;100212.66;;;23.12;71.65
50430;BME280;36359;41.556;-8.418;2023-08-06T03:05:53;100209.22;;;22.99;72.37
50430;BME280;36359;41.556;-8.418;2023-08-06T03:08:28;100215.47;;;23.06;72.28
50430;BME280;36359;41.556;-8.418;2023-08-06T03:10:54;100211.81;;;23.12;71.90
50430;BME280;36359;41.556;-8.418;2023-08-06T03:13:19;100210.44;;;23.45;70.22
50430;BME280;36359;41.556;-8.418;2023-08-06T03:15:56;100216.41;;;23.18;71.13
50430;BME280;36359;41.556;-8.418;2023-08-06T03:18:22;100214.69;;;23.17;71.04
50430;BME280;36359;41.556;-8.418;2023-08-06T03:23:17;100203.50;;;23.66;69.14
50430;BME280;36359;41.556;-8.418;2023-08-06T03:25:44;100202.41;;;23.67;69.06
50430;BME280;36359;41.556;-8.418;2023-08-06T03:28:11;100211.72;;;23.72;68.74
50430;BME280;36359;41.556;-8.418;2023-08-06T03:30:38;100195.94;;;23.85;67.87
50430;BME280;36359;41.556;-8.418;2023-08-06T03:33:05;100210.91;;;24.07;66.74
50430;BME280;36359;41.556;-8.418;2023-08-06T03:35:31;100202.78;;;24.17;66.24
50430;BME280;36359;41.556;-8.418;2023-08-06T03:37:57;100199.91;;;24.47;65.00
50430;BME280;36359;41.556;-8.418;2023-08-06T03:40:22;100193.47;;;24.59;64.67
50430;BME280;36359;41.556;-8.418;2023-08-06T03:42:48;100195.47;;;23.99;66.26
50430;BME280;36359;41.556;-8.418;2023-08-06T03:45:14;100190.69;;;23.53;68.65
50430;BME280;36359;41.556;-8.418;2023-08-06T03:47:40;100194.22;;;23.60;68.77
50430;BME280;36359;41.556;-8.418;2023-08-06T03:50:07;100191.72;;;23.82;67.53
50430;BME280;36359;41.556;-8.418;2023-08-06T03:52:33;100197.03;;;23.84;67.32
50430;BME280;36359;41.556;-8.418;2023-08-06T03:54:59;100191.16;;;23.38;68.96
50430;BME280;36359;41.556;-8.418;2023-08-06T03:57:24;100190.94;;;22.98;70.40
50430;BME280;36359;41.556;-8.418;2023-08-06T03:59:50;100190.31;;;22.96;70.57
50430;BME280;36359;41.556;-8.418;2023-08-06T04:02:16;100188.03;;;22.74;71.40
50430;BME280;36359;41.556;-8.418;2023-08-06T04:04:42;100186.16;;;22.56;72.31
50430;BME280;36359;41.556;-8.418;2023-08-06T04:07:19;100194.44;;;22.38;73.36
50430;BME280;36359;41.556;-8.418;2023-08-06T04:09:53;100183.50;;;22.61;72.78
50430;BME280;36359;41.556;-8.418;2023-08-06T04:12:19;100180.94;;;22.97;70.67
50430;BME280;36359;41.556;-8.418;2023-08-06T04:14:44;100181.22;;;23.07;69.88
50430;BME280;36359;41.556;-8.418;2023-08-06T04:17:10;100178.50;;;22.88;70.75
50430;BME280;36359;41.556;-8.418;2023-08-06T04:19:36;100181.00;;;22.90;70.64
50430;BME280;36359;41.556;-8.418;2023-08-06T04:22:01;100174.44;;;23.03;70.22
50430;BME280;36359;41.556;-8.418;2023-08-06T04:24:27;100175.31;;;23.03;69.40
50430;BME280;36359;41.556;-8.418;2023-08-06T04:26:53;100184.91;;;23.43;68.65
50430;BME280;36359;41.556;-8.418;2023-08-06T04:29:18;100190.34;;;23.61;67.48
50430;BME280;36359;41.556;-8.418;2023-08-06T04:31:44;100179.34;;;23.19;68.72
50430;BME280;36359;41.556;-8.418;2023-08-06T04:34:11;100180.84;;;22.55;71.63
50430;BME280;36359;41.556;-8.418;2023-08-06T04:36:38;100184.91;;;22.15;73.36
50430;BME280;36359;41.556;-8.418;2023-08-06T04:39:04;100182.34;;;22.14;73.73
50430;BME280;36359;41.556;-8.418;2023-08-06T04:41:30;100182.03;;;22.77;70.71
50430;BME280;36359;41.556;-8.418;2023-08-06T04:43:56;100182.22;;;22.45;72.18
50430;BME280;36359;41.556;-8.418;2023-08-06T04:46:24;100177.38;;;22.41;71.82
50430;BME280;36359;41.556;-8.418;2023-08-06T04:48:49;100191.72;;;22.50;71.99
50430;BME280;36359;41.556;-8.418;2023-08-06T04:51:15;100196.19;;;22.69;71.84
50430;BME280;36359;41.556;-8.418;2023-08-06T04:53:41;100198.41;;;22.60;71.31
50430;BME280;36359;41.556;-8.418;2023-08-06T04:56:06;100196.97;;;22.58;72.06
50430;BME280;36359;41.556;-8.418;2023-08-06T04:58:32;100197.25;;;22.50;71.72
50430;BME280;36359;41.556;-8.418;2023-08-06T05:00:58;100196.78;;;22.16;72.28
50430;BME280;36359;41.556;-8.418;2023-08-06T05:03:24;100202.78;;;22.13;71.87
50430;BME280;36359;41.556;-8.418;2023-08-06T05:05:49;100206.66;;;22.05;72.23
50430;BME280;36359;41.556;-8.418;2023-08-06T05:08:15;100201.22;;;21.98;72.76
50430;BME280;36359;41.556;-8.418;2023-08-06T05:10:43;100204.25;;;21.90;73.40
50430;BME280;36359;41.556;-8.418;2023-08-06T05:13:09;100203.72;;;21.82;73.86
50430;BME280;36359;41.556;-8.418;2023-08-06T05:15:35;100206.09;;;21.78;74.21
50430;BME280;36359;41.556;-8.418;2023-08-06T05:18:01;100205.69;;;21.74;74.29
50430;BME280;36359;41.556;-8.418;2023-08-06T05:20:26;100212.50;;;21.72;74.70
50430;BME280;36359;41.556;-8.418;2023-08-06T05:22:52;100214.66;;;21.70;74.82
50430;BME280;36359;41.556;-8.418;2023-08-06T05:25:18;100209.94;;;21.77;74.81
50430;BME280;36359;41.556;-8.418;2023-08-06T05:27:43;100212.50;;;21.72;75.09
50430;BME280;36359;41.556;-8.418;2023-08-06T05:30:10;100216.19;;;21.66;75.33
50430;BME280;36359;41.556;-8.418;2023-08-06T05:32:35;100217.75;;;21.55;75.17
50430;BME280;36359;41.556;-8.418;2023-08-06T05:35:01;100223.38;;;21.35;76.27
50430;BME280;36359;41.556;-8.418;2023-08-06T05:37:27;100222.13;;;21.31;76.71
50430;BME280;36359;41.556;-8.418;2023-08-06T05:39:53;100221.31;;;21.30;76.57
50430;BME280;36359;41.556;-8.418;2023-08-06T05:42:18;100231.41;;;21.43;75.52
50430;BME280;36359;41.556;-8.418;2023-08-06T05:44:44;100229.19;;;21.59;74.71
50430;BME280;36359;41.556;-8.418;2023-08-06T05:47:09;100227.16;;;21.47;75.51
50430;BME280;36359;41.556;-8.418;2023-08-06T05:49:35;100227.16;;;21.47;75.73
50430;BME280;36359;41.556;-8.418;2023-08-06T05:52:01;100238.03;;;21.42;75.32
50430;BME280;36359;41.556;-8.418;2023-08-06T05:54:28;100242.09;;;21.33;75.74
50430;BME280;36359;41.556;-8.418;2023-08-06T05:56:53;100240.47;;;21.19;76.14
50430;BME280;36359;41.556;-8.418;2023-08-06T05:59:19;100234.13;;;21.12;76.95
50430;BME280;36359;41.556;-8.418;2023-08-06T06:01:45;100229.44;;;21.19;76.23
50430;BME280;36359;41.556;-8.418;2023-08-06T06:04:10;100233.69;;;21.21;76.10
50430;BME280;36359;41.556;-8.418;2023-08-06T06:06:36;100237.84;;;21.37;75.10
50430;BME280;36359;41.556;-8.418;2023-08-06T06:09:01;100239.53;;;21.38;75.04
50430;BME280;36359;41.556;-8.418;2023-08-06T06:11:27;100242.28;;;21.38;75.37
50430;BME280;36359;41.556;-8.418;2023-08-06T06:13:53;100245.03;;;21.38;74.70
50430;BME280;36359;41.556;-8.418;2023-08-06T06:16:19;100240.81;;;21.36;74.49
50430;BME280;36359;41.556;-8.418;2023-08-06T06:18:44;100240.38;;;21.39;74.89
50430;BME280;36359;41.556;-8.418;2023-08-06T06:21:10;100243.78;;;21.34;74.96
50430;BME280;36359;41.556;-8.418;2023-08-06T06:23:36;100242.53;;;21.30;75.36
50430;BME280;36359;41.556;-8.418;2023-08-06T06:26:02;100244.84;;;21.33;74.92
50430;BME280;36359;41.556;-8.418;2023-08-06T06:28:28;100245.06;;;21.31;74.50
50430;BME280;36359;41.556;-8.418;2023-08-06T06:30:53;100252.69;;;21.29;73.95
50430;BME280;36359;41.556;-8.418;2023-08-06T06:33:19;100253.28;;;21.45;73.95
50430;BME280;36359;41.556;-8.418;2023-08-06T06:35:44;100246.88;;;21.51;74.10
50430;BME280;36359;41.556;-8.418;2023-08-06T06:38:10;100243.66;;;21.54;73.59
50430;BME280;36359;41.556;-8.418;2023-08-06T06:40:36;100244.06;;;21.58;73.43
50430;BME280;36359;41.556;-8.418;2023-08-06T06:43:01;100242.06;;;21.65;72.75
50430;BME280;36359;41.556;-8.418;2023-08-06T06:45:27;100243.53;;;21.74;73.04
50430;BME280;36359;41.556;-8.418;2023-08-06T06:47:53;100252.47;;;21.94;71.99
50430;BME280;36359;41.556;-8.418;2023-08-06T06:50:18;100240.34;;;21.95;71.25
50430;BME280;36359;41.556;-8.418;2023-08-06T06:52:44;100254.72;;;22.04;71.79
50430;BME280;36359;41.556;-8.418;2023-08-06T06:55:10;100252.13;;;22.09;71.38
50430;BME280;36359;41.556;-8.418;2023-08-06T06:57:35;100249.28;;;22.16;70.27
50430;BME280;36359;41.556;-8.418;2023-08-06T07:00:01;100258.78;;;22.27;70.46
50430;BME280;36359;41.556;-8.418;2023-08-06T07:02:26;100257.25;;;22.31;70.89
50430;BME280;36359;41.556;-8.418;2023-08-06T07:04:52;100252.09;;;22.34;69.81
50430;BME280;36359;41.556;-8.418;2023-08-06T07:07:18;100262.53;;;22.32;69.14
50430;BME280;36359;41.556;-8.418;2023-08-06T07:09:44;100253.56;;;22.18;69.79
50430;BME280;36359;41.556;-8.418;2023-08-06T07:12:10;100254.69;;;22.29;69.68
50430;BME280;36359;41.556;-8.418;2023-08-06T07:14:35;100263.41;;;22.33;70.98
50430;BME280;36359;41.556;-8.418;2023-08-06T07:17:01;100249.88;;;22.61;69.61
50430;BME280;36359;41.556;-8.418;2023-08-06T07:19:27;100251.25;;;22.71;68.93
50430;BME280;36359;41.556;-8.418;2023-08-06T07:21:52;100243.25;;;22.81;68.14
50430;BME280;36359;41.556;-8.418;2023-08-06T07:24:18;100251.94;;;23.03;67.74
50430;BME280;36359;41.556;-8.418;2023-08-06T07:26:44;100249.31;;;22.89;67.85
50430;BME280;36359;41.556;-8.418;2023-08-06T07:29:09;100255.88;;;22.95;68.07
50430;BME280;36359;41.556;-8.418;2023-08-06T07:31:35;100255.63;;;22.78;66.31
50430;BME280;36359;41.556;-8.418;2023-08-06T07:34:01;100254.41;;;22.74;67.12
50430;BME280;36359;41.556;-8.418;2023-08-06T07:36:27;100246.97;;;22.75;66.73
50430;BME280;36359;41.556;-8.418;2023-08-06T07:38:52;100259.41;;;22.84;66.89
50430;BME280;36359;41.556;-8.418;2023-08-06T07:41:22;100255.78;;;22.83;65.80
50430;BME280;36359;41.556;-8.418;2023-08-06T07:43:48;100261.59;;;22.94;65.36
50430;BME280;36359;41.556;-8.418;2023-08-06T07:46:14;100262.31;;;22.89;65.38
50430;BME280;36359;41.556;-8.418;2023-08-06T07:48:40;100258.19;;;22.98;64.88
50430;BME280;36359;41.556;-8.418;2023-08-06T07:51:05;100263.09;;;22.96;64.87
50430;BME280;36359;41.556;-8.418;2023-08-06T07:53:31;100264.44;;;23.05;65.07
50430;BME280;36359;41.556;-8.418;2023-08-06T07:55:57;100260.84;;;23.05;64.77
50430;BME280;36359;41.556;-8.418;2023-08-06T07:58:24;100271.81;;;23.11;65.36
50430;BME280;36359;41.556;-8.418;2023-08-06T08:00:51;100271.88;;;23.23;64.89
50430;BME280;36359;41.556;-8.418;2023-08-06T08:03:17;100270.28;;;23.46;63.95
50430;BME280;36359;41.556;-8.418;2023-08-06T08:05:43;100269.00;;;23.60;63.53
50430;BME280;36359;41.556;-8.418;2023-08-06T08:08:09;100269.59;;;23.62;63.31
50430;BME280;36359;41.556;-8.418;2023-08-06T08:10:35;100275.88;;;23.69;63.88
50430;BME280;36359;41.556;-8.418;2023-08-06T08:13:03;100271.03;;;23.95;62.65
50430;BME280;36359;41.556;-8.418;2023-08-06T08:15:30;100266.31;;;23.95;62.47
50430;BME280;36359;41.556;-8.418;2023-08-06T08:17:56;100267.16;;;23.96;62.29
50430;BME280;36359;41.556;-8.418;2023-08-06T08:20:22;100266.06;;;23.97;62.15
50430;BME280;36359;41.556;-8.418;2023-08-06T08:22:47;100264.66;;;24.06;62.56
50430;BME280;36359;41.556;-8.418;2023-08-06T08:25:14;100262.59;;;24.13;63.52
50430;BME280;36359;41.556;-8.418;2023-08-06T08:27:39;100261.88;;;24.30;63.53
50430;BME280;36359;41.556;-8.418;2023-08-06T08:30:05;100263.91;;;24.34;62.29
50430;BME280;36359;41.556;-8.418;2023-08-06T08:32:31;100255.94;;;24.38;62.09
50430;BME280;36359;41.556;-8.418;2023-08-06T08:34:57;100256.53;;;24.63;60.79
50430;BME280;36359;41.556;-8.418;2023-08-06T08:37:23;100260.13;;;24.76;60.69
50430;BME280;36359;41.556;-8.418;2023-08-06T08:39:49;100268.06;;;24.84;60.39
50430;BME280;36359;41.556;-8.418;2023-08-06T08:42:15;100257.59;;;24.86;60.42
50430;BME280;36359;41.556;-8.418;2023-08-06T08:44:42;100254.06;;;24.90;59.33
50430;BME280;36359;41.556;-8.418;2023-08-06T08:47:08;100251.88;;;24.92;58.63
50430;BME280;36359;41.556;-8.418;2023-08-06T08:49:35;100255.13;;;25.01;59.37
50430;BME280;36359;41.556;-8.418;2023-08-06T08:52:03;100260.63;;;25.13;59.32
50430;BME280;36359;41.556;-8.418;2023-08-06T08:54:32;100259.16;;;25.22;59.75
50430;BME280;36359;41.556;-8.418;2023-08-06T08:56:58;100265.88;;;25.26;59.84
50430;BME280;36359;41.556;-8.418;2023-08-06T08:59:24;100269.38;;;25.33;58.48
50430;BME280;36359;41.556;-8.418;2023-08-06T09:01:51;100267.44;;;25.34;58.49
50430;BME280;36359;41.556;-8.418;2023-08-06T09:04:18;100274.16;;;25.38;59.11
50430;BME280;36359;41.556;-8.418;2023-08-06T09:06:46;100266.53;;;25.45;58.25
50430;BME280;36359;41.556;-8.418;2023-08-06T09:09:16;100266.47;;;25.57;58.31
50430;BME280;36359;41.556;-8.418;2023-08-06T09:11:43;100271.63;;;25.65;58.25
50430;BME280;36359;41.556;-8.418;2023-08-06T09:14:10;100273.91;;;25.68;57.14
50430;BME280;36359;41.556;-8.418;2023-08-06T09:16:36;100274.84;;;25.91;56.48
50430;BME280;36359;41.556;-8.418;2023-08-06T09:19:09;100272.44;;;25.94;56.94
50430;BME280;36359;41.556;-8.418;2023-08-06T09:21:39;100272.91;;;25.91;56.47
50430;BME280;36359;41.556;-8.418;2023-08-06T09:24:12;100275.47;;;25.93;56.93
50430;BME280;36359;41.556;-8.418;2023-08-06T09:26:40;100272.75;;;26.15;56.01
50430;BME280;36359;41.556;-8.418;2023-08-06T09:29:07;100270.88;;;26.20;56.29
50430;BME280;36359;41.556;-8.418;2023-08-06T09:31:40;100268.09;;;26.37;56.06
50430;BME280;36359;41.556;-8.418;2023-08-06T09:34:20;100271.16;;;26.75;55.72
50430;BME280;36359;41.556;-8.418;2023-08-06T09:36:51;100271.19;;;26.58;55.78
50430;BME280;36359;41.556;-8.418;2023-08-06T09:39:18;100277.75;;;26.90;55.12
50430;BME280;36359;41.556;-8.418;2023-08-06T09:41:45;100275.59;;;26.76;55.22
50430;BME280;36359;41.556;-8.418;2023-08-06T09:44:20;100276.13;;;26.94;54.08
50430;BME280;36359;41.556;-8.418;2023-08-06T09:46:50;100276.88;;;27.12;54.55
50430;BME280;36359;41.556;-8.418;2023-08-06T09:49:18;100280.53;;;27.12;53.64
50430;BME280;36359;41.556;-8.418;2023-08-06T09:51:45;100277.47;;;27.14;53.47
50430;BME280;36359;41.556;-8.418;2023-08-06T09:54:15;100273.34;;;27.38;52.68
50430;BME280;36359;41.556;-8.418;2023-08-06T09:56:41;100273.56;;;27.37;53.46
50430;BME280;36359;41.556;-8.418;2023-08-06T09:59:07;100272.84;;;27.47;53.75
50430;BME280;36359;41.556;-8.418;2023-08-06T10:01:36;100261.63;;;27.69;52.99
50430;BME280;36359;41.556;-8.418;2023-08-06T10:04:04;100264.13;;;27.65;52.05
50430;BME280;36359;41.556;-8.418;2023-08-06T10:06:33;100264.94;;;27.66;52.33
50430;BME280;36359;41.556;-8.418;2023-08-06T10:08:59;100257.44;;;27.98;51.98
50430;BME280;36359;41.556;-8.418;2023-08-06T10:11:25;100264.06;;;28.29;51.09
50430;BME280;36359;41.556;-8.418;2023-08-06T10:14:20;100262.94;;;28.25;51.19
50430;BME280;36359;41.556;-8.418;2023-08-06T10:16:43;100269.66;;;28.29;51.46
50430;BME280;36359;41.556;-8.418;2023-08-06T10:19:10;100266.31;;;28.27;50.41
50430;BME280;36359;41.556;-8.418;2023-08-06T10:21:40;100270.19;;;28.26;50.72
50430;BME280;36359;41.556;-8.418;2023-08-06T10:24:07;100260.16;;;28.25;50.48
50430;BME280;36359;41.556;-8.418;2023-08-06T10:26:36;100265.81;;;28.41;49.89
50430;BME280;36359;41.556;-8.418;2023-08-06T10:29:37;100273.59;;;28.76;49.89
50430;BME280;36359;41.556;-8.418;2023-08-06T10:32:04;100272.28;;;28.99;48.43
50430;BME280;36359;41.556;-8.418;2023-08-06T10:34:53;100272.25;;;28.89;49.53
50430;BME280;36359;41.556;-8.418;2023-08-06T10:37:20;100266.13;;;28.92;48.79
50430;BME280;36359;41.556;-8.418;2023-08-06T10:39:51;100262.59;;;29.07;48.65
50430;BME280;36359;41.556;-8.418;2023-08-06T10:42:21;100256.47;;;29.20;47.57
50430;BME280;36359;41.556;-8.418;2023-08-06T10:45:15;100251.22;;;29.39;47.34
50430;BME280;36359;41.556;-8.418;2023-08-06T10:47:42;100248.97;;;29.41;47.20
50430;BME280;36359;41.556;-8.418;2023-08-06T10:50:11;100250.13;;;29.60;46.34
50430;BME280;36359;41.556;-8.418;2023-08-06T10:52:37;100245.41;;;29.76;47.22
50430;BME280;36359;41.556;-8.418;2023-08-06T10:55:04;100248.50;;;30.00;45.93
50430;BME280;36359;41.556;-8.418;2023-08-06T10:57:30;100243.16;;;30.24;45.15
50430;BME280;36359;41.556;-8.418;2023-08-06T10:59:55;100240.91;;;30.16;45.49
50430;BME280;36359;41.556;-8.418;2023-08-06T11:02:21;100242.31;;;30.29;44.46
50430;BME280;36359;41.556;-8.418;2023-08-06T11:04:48;100243.69;;;30.06;45.43
50430;BME280;36359;41.556;-8.418;2023-08-06T11:07:14;100242.59;;;29.97;43.74
50430;BME280;36359;41.556;-8.418;2023-08-06T11:09:39;100247.91;;;29.98;44.43
50430;BME280;36359;41.556;-8.418;2023-08-06T11:12:11;100232.53;;;30.01;44.50
50430;BME280;36359;41.556;-8.418;2023-08-06T11:14:37;100241.47;;;30.18;44.32
50430;BME280;36359;41.556;-8.418;2023-08-06T11:17:05;100228.31;;;30.29;42.87
50430;BME280;36359;41.556;-8.418;2023-08-06T11:19:31;100235.59;;;30.30;42.40
50430;BME280;36359;41.556;-8.418;2023-08-06T11:21:56;100235.34;;;30.21;42.61
50430;BME280;36359;41.556;-8.418;2023-08-06T11:24:24;100236.34;;;30.61;42.29
50430;BME280;36359;41.556;-8.418;2023-08-06T11:26:50;100235.47;;;30.71;41.60
50430;BME280;36359;41.556;-8.418;2023-08-06T11:29:16;100236.59;;;30.70;41.12
50430;BME280;36359;41.556;-8.418;2023-08-06T11:31:41;100232.13;;;30.59;40.70
50430;BME280;36359;41.556;-8.418;2023-08-06T11:34:07;100225.97;;;30.67;41.47
50430;BME280;36359;41.556;-8.418;2023-08-06T11:36:39;100233.38;;;31.52;39.50
50430;BME280;36359;41.556;-8.418;2023-08-06T11:39:05;100226.97;;;31.46;39.07
50430;BME280;36359;41.556;-8.418;2023-08-06T11:41:32;100222.25;;;31.41;39.78
50430;BME280;36359;41.556;-8.418;2023-08-06T11:43:58;100223.00;;;31.86;39.72
50430;BME280;36359;41.556;-8.418;2023-08-06T11:46:24;100216.00;;;31.50;39.33
50430;BME280;36359;41.556;-8.418;2023-08-06T11:48:54;100211.06;;;31.41;38.14
50430;BME280;36359;41.556;-8.418;2023-08-06T11:51:26;100209.06;;;31.76;37.86
50430;BME280;36359;41.556;-8.418;2023-08-06T11:56:25;100197.91;;;31.71;36.35
50430;BME280;36359;41.556;-8.418;2023-08-06T11:58:52;100203.25;;;31.67;35.79
50430;BME280;36359;41.556;-8.418;2023-08-06T12:01:18;100194.47;;;31.45;38.31
50430;BME280;36359;41.556;-8.418;2023-08-06T12:03:44;100190.66;;;31.65;36.93
50430;BME280;36359;41.556;-8.418;2023-08-06T12:06:09;100180.28;;;31.65;36.37
50430;BME280;36359;41.556;-8.418;2023-08-06T12:08:35;100183.63;;;32.26;35.58
50430;BME280;36359;41.556;-8.418;2023-08-06T12:11:01;100178.34;;;32.24;35.03
50430;BME280;36359;41.556;-8.418;2023-08-06T12:13:27;100170.31;;;32.12;35.42
50430;BME280;36359;41.556;-8.418;2023-08-06T12:15:54;100170.53;;;31.92;34.71
50430;BME280;36359;41.556;-8.418;2023-08-06T12:18:20;100176.13;;;32.21;33.67
50430;BME280;36359;41.556;-8.418;2023-08-06T12:20:45;100170.09;;;32.33;33.61
50430;BME280;36359;41.556;-8.418;2023-08-06T12:23:11;100175.41;;;32.58;33.24
50430;BME280;36359;41.556;-8.418;2023-08-06T12:25:41;100174.28;;;32.60;32.59
50430;BME280;36359;41.556;-8.418;2023-08-06T12:28:07;100162.94;;;32.89;31.90
50430;BME280;36359;41.556;-8.418;2023-08-06T12:30:34;100174.25;;;32.35;32.14
50430;BME280;36359;41.556;-8.418;2023-08-06T12:32:59;100171.63;;;32.20;33.05
50430;BME280;36359;41.556;-8.418;2023-08-06T12:35:25;100163.16;;;32.25;33.35
50430;BME280;36359;41.556;-8.418;2023-08-06T12:37:51;100161.72;;;32.28;33.18
50430;BME280;36359;41.556;-8.418;2023-08-06T12:40:20;100155.28;;;32.03;34.05
50430;BME280;36359;41.556;-8.418;2023-08-06T12:42:46;100158.28;;;32.60;31.94
50430;BME280;36359;41.556;-8.418;2023-08-06T12:45:12;100152.22;;;32.91;30.03